sensor_id;sensor_type;location;lat;lon;timestamp;pressure;altitude;pressure_sealevel;temperature;humidity
84511;BME280;74730;43.858;18.424;2024-03-07T00:02:20;95057.75;;;8.60;71.00
84511;BME280;74730;43.858;18.424;2024-03-07T00:04:46;95063.63;;;8.54;71.75
84511;BME280;74730;43.858;18.424;2024-03-07T00:07:12;95067.44;;;8.58;70.76
84511;BME280;74730;43.858;18.424;2024-03-07T00:09:37;95061.47;;;8.58;71.91
84511;BME280;74730;43.858;18.424;2024-03-07T00:12:06;95072.22;;;8.61;71.87
84511;BME280;74730;43.858;18.424;2024-03-07T00:14:32;95070.84;;;8.65;71.64
84511;BME280;74730;43.858;18.424;2024-03-07T00:17:01;95070.66;;;8.67;72.06
84511;BME280;74730;43.858;18.424;2024-03-07T00:19:28;95061.63;;;8.77;71.61
84511;BME280;74730;43.858;18.424;2024-03-07T00:21:58;95061.63;;;8.77;71.76
84511;BME280;74730;43.858;18.424;2024-03-07T00:24:23;95053.66;;;8.72;72.01
84511;BME280;74730;43.858;18.424;2024-03-07T00:26:49;95063.38;;;8.70;71.82
84511;BME280;74730;43.858;18.424;2024-03-07T00:29:18;95058.22;;;8.70;72.47
84511;BME280;74730;43.858;18.424;2024-03-07T00:31:47;95056.22;;;8.72;71.47
84511;BME280;74730;43.858;18.424;2024-03-07T00:34:13;95057.66;;;8.75;71.80
84511;BME280;74730;43.858;18.424;2024-03-07T00:36:42;95061.22;;;8.80;71.71
84511;BME280;74730;43.858;18.424;2024-03-07T00:39:08;95050.34;;;8.78;71.98
84511;BME280;74730;43.858;18.424;2024-03-07T00:41:34;95057.09;;;8.79;71.89
84511;BME280;74730;43.858;18.424;2024-03-07T00:43:59;95054.88;;;8.76;71.98
84511;BME280;74730;43.858;18.424;2024-03-07T00:46:25;95049.06;;;8.68;72.09
84511;BME280;74730;43.858;18.424;2024-03-07T00:48:50;95048.66;;;8.64;72.20
84511;BME280;74730;43.858;18.424;2024-03-07T00:51:16;95048.84;;;8.63;72.28
84511;BME280;74730;43.858;18.424;2024-03-07T00:53:41;95056.34;;;8.58;73.12
84511;BME280;74730;43.858;18.424;2024-03-07T00:56:07;95049.63;;;8.57;73.27
84511;BME280;74730;43.858;18.424;2024-03-07T00:58:32;95040.72;;;8.59;73.26
84511;BME280;74730;43.858;18.424;2024-03-07T01:00:58;95047.63;;;8.59;72.59
84511;BME280;74730;43.858;18.424;2024-03-07T01:03:23;95042.47;;;8.59;73.33
84511;BME280;74730;43.858;18.424;2024-03-07T01:05:49;95039.53;;;8.62;73.06
84511;BME280;74730;43.858;18.424;2024-03-07T01:08:15;95033.59;;;8.61;72.43
84511;BME280;74730;43.858;18.424;2024-03-07T01:10:40;95039.72;;;8.60;72.65
84511;BME280;74730;43.858;18.424;2024-03-07T01:13:06;95034.16;;;8.57;73.12
84511;BME280;74730;43.858;18.424;2024-03-07T01:15:34;95038.13;;;8.59;73.09
84511;BME280;74730;43.858;18.424;2024-03-07T01:18:00;95043.91;;;8.61;72.86
84511;BME280;74730;43.858;18.424;2024-03-07T01:20:25;95037.75;;;8.62;73.04
84511;BME280;74730;43.858;18.424;2024-03-07T01:22:51;95041.31;;;8.61;73.15
84511;BME280;74730;43.858;18.424;2024-03-07T01:25:18;95037.75;;;8.62;73.38
84511;BME280;74730;43.858;18.424;2024-03-07T01:27:43;95034.81;;;8.65;73.46
84511;BME280;74730;43.858;18.424;2024-03-07T01:30:10;95033.63;;;8.68;72.26
84511;BME280;74730;43.858;18.424;2024-03-07T01:32:36;95037.16;;;8.60;72.79
84511;BME280;74730;43.858;18.424;2024-03-07T01:35:01;95028.97;;;8.50;73.42
84511;BME280;74730;43.858;18.424;2024-03-07T01:37:27;95029.44;;;8.32;74.63
84511;BME280;74730;43.858;18.424;2024-03-07T01:39:54;95026.31;;;8.16;75.48
84511;BME280;74730;43.858;18.424;2024-03-07T01:42:19;95024.91;;;8.13;74.48
84511;BME280;74730;43.858;18.424;2024-03-07T01:44:45;95013.78;;;8.06;74.21
84511;BME280;74730;43.858;18.424;2024-03-07T01:47:11;95018.59;;;7.94;75.07
84511;BME280;74730;43.858;18.424;2024-03-07T01:49:37;95008.75;;;7.98;74.73
84511;BME280;74730;43.858;18.424;2024-03-07T01:52:04;95015.25;;;7.94;75.19
84511;BME280;74730;43.858;18.424;2024-03-07T01:54:32;95007.94;;;7.97;74.66
84511;BME280;74730;43.858;18.424;2024-03-07T01:56:58;95009.38;;;8.00;75.69
84511;BME280;74730;43.858;18.424;2024-03-07T01:59:24;95005.19;;;7.99;75.22
84511;BME280;74730;43.858;18.424;2024-03-07T02:01:52;95010.59;;;8.04;75.49
84511;BME280;74730;43.858;18.424;2024-03-07T02:04:17;95004.88;;;8.09;74.78
84511;BME280;74730;43.858;18.424;2024-03-07T02:06:43;95007.06;;;8.12;74.45
84511;BME280;74730;43.858;18.424;2024-03-07T02:09:09;95003.16;;;8.16;75.08
84511;BME280;74730;43.858;18.424;2024-03-07T02:11:34;95005.38;;;8.19;74.80
84511;BME280;74730;43.858;18.424;2024-03-07T02:14:00;95012.53;;;8.23;74.83
84511;BME280;74730;43.858;18.424;2024-03-07T02:16:25;95007.78;;;8.27;74.36
84511;BME280;74730;43.858;18.424;2024-03-07T02:18:51;95005.59;;;8.24;74.39
84511;BME280;74730;43.858;18.424;2024-03-07T02:21:17;95006.75;;;8.21;74.57
84511;BME280;74730;43.858;18.424;2024-03-07T02:23:43;95010.09;;;8.15;74.52
84511;BME280;74730;43.858;18.424;2024-03-07T02:26:09;95009.41;;;8.07;73.34
84511;BME280;74730;43.858;18.424;2024-03-07T02:28:34;95004.81;;;8.02;73.71
84511;BME280;74730;43.858;18.424;2024-03-07T02:31:01;95011.75;;;8.01;73.79
84511;BME280;74730;43.858;18.424;2024-03-07T02:33:26;95012.34;;;8.03;72.70
84511;BME280;74730;43.858;18.424;2024-03-07T02:35:52;95015.56;;;8.06;73.52
84511;BME280;74730;43.858;18.424;2024-03-07T02:38:18;95013.56;;;8.08;72.31
84511;BME280;74730;43.858;18.424;2024-03-07T02:40:43;95029.44;;;8.11;71.59
84511;BME280;74730;43.858;18.424;2024-03-07T02:43:09;95026.69;;;8.13;71.60
84511;BME280;74730;43.858;18.424;2024-03-07T02:45:34;95020.72;;;8.12;71.89
84511;BME280;74730;43.858;18.424;2024-03-07T02:48:00;95030.03;;;8.13;72.40
84511;BME280;74730;43.858;18.424;2024-03-07T02:50:25;95030.22;;;8.12;71.86
84511;BME280;74730;43.858;18.424;2024-03-07T02:52:50;95033.19;;;8.09;71.88
84511;BME280;74730;43.858;18.424;2024-03-07T02:55:18;95035.38;;;8.12;71.45
84511;BME280;74730;43.858;18.424;2024-03-07T02:57:44;95028.03;;;8.09;71.50
84511;BME280;74730;43.858;18.424;2024-03-07T03:00:11;95041.44;;;8.04;71.00
84511;BME280;74730;43.858;18.424;2024-03-07T03:02:48;95036.84;;;7.99;71.23
84511;BME280;74730;43.858;18.424;2024-03-07T03:05:16;95040.78;;;7.95;70.96
84511;BME280;74730;43.858;18.424;2024-03-07T03:07:43;95033.63;;;7.91;70.91
84511;BME280;74730;43.858;18.424;2024-03-07T03:10:27;95039.31;;;7.86;71.33
84511;BME280;74730;43.858;18.424;2024-03-07T03:12:56;95039.69;;;7.83;71.63
84511;BME280;74730;43.858;18.424;2024-03-07T03:15:26;95037.72;;;7.85;71.23
84511;BME280;74730;43.858;18.424;2024-03-07T03:17:51;95037.53;;;7.87;70.82
84511;BME280;74730;43.858;18.424;2024-03-07T03:20:18;95037.13;;;7.83;71.59
84511;BME280;74730;43.858;18.424;2024-03-07T03:22:51;95042.81;;;7.79;71.37
84511;BME280;74730;43.858;18.424;2024-03-07T03:25:16;95051.25;;;7.73;72.25
84511;BME280;74730;43.858;18.424;2024-03-07T03:27:43;95055.16;;;7.69;72.17
84511;BME280;74730;43.858;18.424;2024-03-07T03:30:09;95053.41;;;7.69;72.52
84511;BME280;74730;43.858;18.424;2024-03-07T03:32:39;95054.38;;;7.68;72.00
84511;BME280;74730;43.858;18.424;2024-03-07T03:35:05;95051.63;;;7.70;72.04
84511;BME280;74730;43.858;18.424;2024-03-07T03:37:31;95051.16;;;7.66;71.27
84511;BME280;74730;43.858;18.424;2024-03-07T03:39:56;95053.84;;;7.58;71.60
84511;BME280;74730;43.858;18.424;2024-03-07T03:42:22;95058.16;;;7.51;71.99
84511;BME280;74730;43.858;18.424;2024-03-07T03:44:47;95054.88;;;7.42;72.01
84511;BME280;74730;43.858;18.424;2024-03-07T03:47:13;95054.19;;;7.34;72.77
84511;BME280;74730;43.858;18.424;2024-03-07T03:49:39;95051.72;;;7.26;72.05
84511;BME280;74730;43.858;18.424;2024-03-07T03:52:04;95053.75;;;7.16;72.00
84511;BME280;74730;43.858;18.424;2024-03-07T03:54:30;95053.34;;;7.12;71.92
84511;BME280;74730;43.858;18.424;2024-03-07T03:56:55;95049.28;;;7.03;72.82
84511;BME280;74730;43.858;18.424;2024-03-07T03:59:21;95045.75;;;6.89;73.09
84511;BME280;74730;43.858;18.424;2024-03-07T04:01:46;95044.22;;;6.80;73.92
84511;BME280;74730;43.858;18.424;2024-03-07T04:04:13;95046.09;;;6.72;74.35
84511;BME280;74730;43.858;18.424;2024-03-07T04:06:38;95045.19;;;6.64;75.35
84511;BME280;74730;43.858;18.424;2024-03-07T04:09:05;95055.47;;;6.50;76.11
84511;BME280;74730;43.858;18.424;2024-03-07T04:11:30;95049.34;;;6.51;75.47
84511;BME280;74730;43.858;18.424;2024-03-07T04:13:56;95051.47;;;6.47;75.58
84511;BME280;74730;43.858;18.424;2024-03-07T04:16:21;95055.59;;;6.34;75.55
84511;BME280;74730;43.858;18.424;2024-03-07T04:18:47;95052.47;;;6.23;76.30
84511;BME280;74730;43.858;18.424;2024-03-07T04:21:12;95057.06;;;6.13;76.00
84511;BME280;74730;43.858;18.424;2024-03-07T04:23:40;95059.06;;;6.03;77.50
84511;BME280;74730;43.858;18.424;2024-03-07T04:26:05;95059.03;;;5.89;78.43
84511;BME280;74730;43.858;18.424;2024-03-07T04:28:31;95065.25;;;5.86;78.12
84511;BME280;74730;43.858;18.424;2024-03-07T04:30:56;95068.50;;;5.80;78.56
84511;BME280;74730;43.858;18.424;2024-03-07T04:33:22;95057.16;;;5.74;78.31
84511;BME280;74730;43.858;18.424;2024-03-07T04:35:48;95065.53;;;5.68;79.18
84511;BME280;74730;43.858;18.424;2024-03-07T04:38:13;95066.03;;;5.64;79.25
84511;BME280;74730;43.858;18.424;2024-03-07T04:40:41;95065.59;;;5.60;78.95
84511;BME280;74730;43.858;18.424;2024-03-07T04:43:07;95065.78;;;5.59;79.46
84511;BME280;74730;43.858;18.424;2024-03-07T04:45:33;95075.72;;;5.54;79.39
84511;BME280;74730;43.858;18.424;2024-03-07T04:47:59;95078.00;;;5.49;79.66
84511;BME280;74730;43.858;18.424;2024-03-07T04:50:25;95078.31;;;5.46;79.47
84511;BME280;74730;43.858;18.424;2024-03-07T04:52:51;95078.66;;;5.43;79.05
84511;BME280;74730;43.858;18.424;2024-03-07T04:55:17;95075.47;;;5.41;78.43
84511;BME280;74730;43.858;18.424;2024-03-07T04:57:43;95073.88;;;5.40;78.62
84511;BME280;74730;43.858;18.424;2024-03-07T05:00:10;95075.78;;;5.38;78.27
84511;BME280;74730;43.858;18.424;2024-03-07T05:02:40;95072.44;;;5.37;77.82
84511;BME280;74730;43.858;18.424;2024-03-07T05:05:06;95077.75;;;5.35;77.69
84511;BME280;74730;43.858;18.424;2024-03-07T05:07:33;95078.84;;;5.33;76.89
84511;BME280;74730;43.858;18.424;2024-03-07T05:09:58;95084.47;;;5.28;76.77
84511;BME280;74730;43.858;18.424;2024-03-07T05:12:23;95083.88;;;5.26;77.70
84511;BME280;74730;43.858;18.424;2024-03-07T05:14:49;95084.47;;;5.28;77.25
84511;BME280;74730;43.858;18.424;2024-03-07T05:17:14;95087.34;;;5.33;77.84
84511;BME280;74730;43.858;18.424;2024-03-07T05:19:40;95080.47;;;5.34;79.30
84511;BME280;74730;43.858;18.424;2024-03-07T05:22:05;95081.59;;;5.31;79.68
84511;BME280;74730;43.858;18.424;2024-03-07T05:24:31;95088.81;;;5.28;80.01
84511;BME280;74730;43.858;18.424;2024-03-07T05:26:58;95086.59;;;5.25;79.74
84511;BME280;74730;43.858;18.424;2024-03-07T05:29:24;95086.75;;;5.23;80.31
84511;BME280;74730;43.858;18.424;2024-03-07T05:31:50;95089.63;;;5.20;80.28
84511;BME280;74730;43.858;18.424;2024-03-07T05:34:16;95090.00;;;5.17;79.54
84511;BME280;74730;43.858;18.424;2024-03-07T05:36:45;95097.81;;;5.16;80.56
84511;BME280;74730;43.858;18.424;2024-03-07T05:39:14;95091.41;;;5.20;80.68
84511;BME280;74730;43.858;18.424;2024-03-07T05:41:41;95092.84;;;5.22;80.67
84511;BME280;74730;43.858;18.424;2024-03-07T05:44:07;95095.22;;;5.24;81.04
84511;BME280;74730;43.858;18.424;2024-03-07T05:46:37;95100.53;;;5.22;80.74
84511;BME280;74730;43.858;18.424;2024-03-07T05:49:09;95106.72;;;5.28;80.13
84511;BME280;74730;43.858;18.424;2024-03-07T05:51:35;95103.59;;;5.49;77.87
84511;BME280;74730;43.858;18.424;2024-03-07T05:54:01;95105.25;;;5.64;77.46
84511;BME280;74730;43.858;18.424;2024-03-07T05:56:26;95110.47;;;5.79;75.91
84511;BME280;74730;43.858;18.424;2024-03-07T05:58:52;95109.19;;;6.06;75.27
84511;BME280;74730;43.858;18.424;2024-03-07T06:01:18;95109.91;;;6.37;75.31
84511;BME280;74730;43.858;18.424;2024-03-07T06:03:44;95106.34;;;6.61;73.76
84511;BME280;74730;43.858;18.424;2024-03-07T06:06:10;95111.34;;;6.77;72.32
84511;BME280;74730;43.858;18.424;2024-03-07T06:08:37;95113.13;;;6.91;71.49
84511;BME280;74730;43.858;18.424;2024-03-07T06:11:03;95113.56;;;6.95;71.36
84511;BME280;74730;43.858;18.424;2024-03-07T06:13:29;95110.09;;;7.02;71.77
84511;BME280;74730;43.858;18.424;2024-03-07T06:15:54;95114.16;;;6.97;72.75
84511;BME280;74730;43.858;18.424;2024-03-07T06:18:20;95115.06;;;7.04;71.86
84511;BME280;74730;43.858;18.424;2024-03-07T06:20:45;95117.16;;;7.15;71.61
84511;BME280;74730;43.858;18.424;2024-03-07T06:23:11;95116.56;;;7.28;71.64
84511;BME280;74730;43.858;18.424;2024-03-07T06:25:42;95112.28;;;7.35;71.24
84511;BME280;74730;43.858;18.424;2024-03-07T06:28:16;95124.16;;;7.36;71.90
84511;BME280;74730;43.858;18.424;2024-03-07T06:30:44;95123.25;;;7.43;71.63
84511;BME280;74730;43.858;18.424;2024-03-07T06:33:11;95128.06;;;7.46;70.44
84511;BME280;74730;43.858;18.424;2024-03-07T06:35:37;95129.56;;;7.41;71.23
84511;BME280;74730;43.858;18.424;2024-03-07T06:38:08;95134.28;;;7.37;70.84
84511;BME280;74730;43.858;18.424;2024-03-07T06:40:35;95132.47;;;7.38;71.24
84511;BME280;74730;43.858;18.424;2024-03-07T06:43:02;95130.38;;;7.41;71.20
84511;BME280;74730;43.858;18.424;2024-03-07T06:45:34;95130.00;;;7.44;70.87
84511;BME280;74730;43.858;18.424;2024-03-07T06:48:00;95136.81;;;7.52;71.11
84511;BME280;74730;43.858;18.424;2024-03-07T06:50:26;95140.09;;;7.61;71.19
84511;BME280;74730;43.858;18.424;2024-03-07T06:52:54;95142.13;;;7.65;70.70
84511;BME280;74730;43.858;18.424;2024-03-07T06:55:20;95145.81;;;7.77;70.03
84511;BME280;74730;43.858;18.424;2024-03-07T06:57:46;95139.88;;;7.77;69.78
84511;BME280;74730;43.858;18.424;2024-03-07T07:00:12;95140.31;;;7.80;70.04
84511;BME280;74730;43.858;18.424;2024-03-07T07:02:40;95146.69;;;7.84;69.56
84511;BME280;74730;43.858;18.424;2024-03-07T07:05:07;95148.16;;;7.93;69.53
84511;BME280;74730;43.858;18.424;2024-03-07T07:07:39;95152.75;;;7.98;69.39
84511;BME280;74730;43.858;18.424;2024-03-07T07:10:07;95152.28;;;8.09;67.36
84511;BME280;74730;43.858;18.424;2024-03-07T07:12:36;95164.44;;;8.15;67.13
84511;BME280;74730;43.858;18.424;2024-03-07T07:15:02;95152.50;;;8.29;66.54
84511;BME280;74730;43.858;18.424;2024-03-07T07:17:29;95154.47;;;8.48;65.50
84511;BME280;74730;43.858;18.424;2024-03-07T07:19:56;95159.59;;;8.69;64.86
84511;BME280;74730;43.858;18.424;2024-03-07T07:22:22;95158.03;;;8.96;63.24
84511;BME280;74730;43.858;18.424;2024-03-07T07:24:47;95159.13;;;9.15;62.49
84511;BME280;74730;43.858;18.424;2024-03-07T07:27:12;95158.59;;;9.26;62.63
84511;BME280;74730;43.858;18.424;2024-03-07T07:29:38;95156.88;;;9.40;62.51
84511;BME280;74730;43.858;18.424;2024-03-07T07:32:05;95169.03;;;9.46;61.89
84511;BME280;74730;43.858;18.424;2024-03-07T07:34:30;95162.63;;;9.35;62.56
84511;BME280;74730;43.858;18.424;2024-03-07T07:36:56;95164.53;;;9.20;62.13
84511;BME280;74730;43.858;18.424;2024-03-07T07:39:22;95160.28;;;9.12;62.56
84511;BME280;74730;43.858;18.424;2024-03-07T07:41:47;95171.38;;;9.06;62.79
84511;BME280;74730;43.858;18.424;2024-03-07T07:44:13;95165.19;;;9.01;63.02
84511;BME280;74730;43.858;18.424;2024-03-07T07:46:39;95178.25;;;8.99;64.47
84511;BME280;74730;43.858;18.424;2024-03-07T07:49:06;95171.13;;;9.01;63.06
84511;BME280;74730;43.858;18.424;2024-03-07T07:51:31;95168.94;;;8.98;63.99
84511;BME280;74730;43.858;18.424;2024-03-07T07:53:57;95174.41;;;9.16;63.29
84511;BME280;74730;43.858;18.424;2024-03-07T07:56:24;95172.34;;;9.40;63.04
84511;BME280;74730;43.858;18.424;2024-03-07T07:58:50;95163.69;;;9.54;62.62
84511;BME280;74730;43.858;18.424;2024-03-07T08:01:17;95170.94;;;9.71;62.58
84511;BME280;74730;43.858;18.424;2024-03-07T08:03:44;95175.53;;;9.76;61.81
84511;BME280;74730;43.858;18.424;2024-03-07T08:06:09;95170.19;;;9.84;60.91
84511;BME280;74730;43.858;18.424;2024-03-07T08:08:35;95174.97;;;9.87;61.53
84511;BME280;74730;43.858;18.424;2024-03-07T08:11:01;95175.59;;;9.96;61.27
84511;BME280;74730;43.858;18.424;2024-03-07T08:13:26;95177.59;;;10.00;60.76
84511;BME280;74730;43.858;18.424;2024-03-07T08:15:52;95179.59;;;9.98;60.50
84511;BME280;74730;43.858;18.424;2024-03-07T08:18:19;95183.25;;;10.23;59.87
84511;BME280;74730;43.858;18.424;2024-03-07T08:20:46;95183.31;;;10.56;58.86
84511;BME280;74730;43.858;18.424;2024-03-07T08:23:11;95181.34;;;10.72;58.51
84511;BME280;74730;43.858;18.424;2024-03-07T08:25:38;95178.97;;;10.70;58.54
84511;BME280;74730;43.858;18.424;2024-03-07T08:28:07;95177.56;;;10.74;58.13
84511;BME280;74730;43.858;18.424;2024-03-07T08:30:36;95186.69;;;10.63;58.66
84511;BME280;74730;43.858;18.424;2024-03-07T08:33:02;95188.91;;;10.66;58.41
84511;BME280;74730;43.858;18.424;2024-03-07T08:35:30;95196.03;;;10.64;58.68
84511;BME280;74730;43.858;18.424;2024-03-07T08:37:56;95197.81;;;10.64;58.31
84511;BME280;74730;43.858;18.424;2024-03-07T08:40:30;95184.69;;;10.52;59.10
84511;BME280;74730;43.858;18.424;2024-03-07T08:42:59;95189.03;;;10.45;58.97
84511;BME280;74730;43.858;18.424;2024-03-07T08:45:26;95189.69;;;10.67;58.31
84511;BME280;74730;43.858;18.424;2024-03-07T08:47:54;95193.25;;;10.92;57.55
84511;BME280;74730;43.858;18.424;2024-03-07T08:50:20;95188.28;;;11.17;57.07
84511;BME280;74730;43.858;18.424;2024-03-07T08:52:47;95192.41;;;11.51;56.03
84511;BME280;74730;43.858;18.424;2024-03-07T08:55:19;95181.00;;;11.85;54.05
84511;BME280;74730;43.858;18.424;2024-03-07T08:57:45;95187.72;;;11.92;54.12
84511;BME280;74730;43.858;18.424;2024-03-07T09:00:15;95185.34;;;12.35;53.55
84511;BME280;74730;43.858;18.424;2024-03-07T09:02:51;95189.19;;;12.58;52.73
84511;BME280;74730;43.858;18.424;2024-03-07T09:05:20;95190.25;;;12.75;52.11
84511;BME280;74730;43.858;18.424;2024-03-07T09:07:51;95196.03;;;12.77;51.65
84511;BME280;74730;43.858;18.424;2024-03-07T09:10:17;95196.97;;;12.58;52.56
84511;BME280;74730;43.858;18.424;2024-03-07T09:12:43;95198.09;;;12.37;53.45
84511;BME280;74730;43.858;18.424;2024-03-07T09:15:10;95202.31;;;12.25;54.17
84511;BME280;74730;43.858;18.424;2024-03-07T09:17:36;95203.94;;;12.19;54.43
84511;BME280;74730;43.858;18.424;2024-03-07T09:20:06;95204.97;;;12.12;54.86
84511;BME280;74730;43.858;18.424;2024-03-07T09:22:32;95209.84;;;11.88;55.00
84511;BME280;74730;43.858;18.424;2024-03-07T09:24:58;95212.88;;;11.72;55.15
84511;BME280;74730;43.858;18.424;2024-03-07T09:27:24;95211.88;;;11.73;54.47
84511;BME280;74730;43.858;18.424;2024-03-07T09:29:50;95202.91;;;11.69;54.37
84511;BME280;74730;43.858;18.424;2024-03-07T09:32:15;95198.13;;;11.79;54.74
84511;BME280;74730;43.858;18.424;2024-03-07T09:34:42;95198.13;;;11.79;54.71
84511;BME280;74730;43.858;18.424;2024-03-07T09:37:08;95203.88;;;11.88;55.42
84511;BME280;74730;43.858;18.424;2024-03-07T09:39:34;95202.88;;;11.82;54.53
84511;BME280;74730;43.858;18.424;2024-03-07T09:42:03;95196.91;;;11.95;53.72
84511;BME280;74730;43.858;18.424;2024-03-07T09:44:34;95201.41;;;12.13;52.64
84511;BME280;74730;43.858;18.424;2024-03-07T09:47:00;95205.44;;;12.40;51.94
84511;BME280;74730;43.858;18.424;2024-03-07T09:49:30;95197.41;;;12.79;51.43
84511;BME280;74730;43.858;18.424;2024-03-07T09:51:56;95187.00;;;13.36;49.34
84511;BME280;74730;43.858;18.424;2024-03-07T09:54:24;95197.25;;;14.03;47.81
84511;BME280;74730;43.858;18.424;2024-03-07T09:56:59;95193.41;;;14.84;45.17
84511;BME280;74730;43.858;18.424;2024-03-07T09:59:28;95193.91;;;15.27;43.98
84511;BME280;74730;43.858;18.424;2024-03-07T10:01:57;95195.22;;;16.00;42.82
84511;BME280;74730;43.858;18.424;2024-03-07T10:04:51;95195.31;;;16.16;41.55
84511;BME280;74730;43.858;18.424;2024-03-07T10:07:18;95197.38;;;16.03;41.48
84511;BME280;74730;43.858;18.424;2024-03-07T10:09:44;95201.50;;;15.64;42.26
84511;BME280;74730;43.858;18.424;2024-03-07T10:12:11;95195.31;;;15.53;42.11
84511;BME280;74730;43.858;18.424;2024-03-07T10:14:50;95199.13;;;15.39;42.53
84511;BME280;74730;43.858;18.424;2024-03-07T10:17:17;95196.84;;;15.31;43.38
84511;BME280;74730;43.858;18.424;2024-03-07T10:19:47;95195.06;;;15.20;42.57
84511;BME280;74730;43.858;18.424;2024-03-07T10:22:14;95197.53;;;15.38;42.27
84511;BME280;74730;43.858;18.424;2024-03-07T10:24:52;95194.13;;;15.02;41.90
84511;BME280;74730;43.858;18.424;2024-03-07T10:27:21;95193.59;;;15.12;42.04
84511;BME280;74730;43.858;18.424;2024-03-07T10:29:48;95199.22;;;14.97;42.03
84511;BME280;74730;43.858;18.424;2024-03-07T10:32:22;95200.03;;;14.68;42.62
84511;BME280;74730;43.858;18.424;2024-03-07T10:34:51;95198.59;;;14.42;42.96
84511;BME280;74730;43.858;18.424;2024-03-07T10:37:17;95193.75;;;14.46;43.43
84511;BME280;74730;43.858;18.424;2024-03-07T10:39:49;95196.69;;;14.49;43.76
84511;BME280;74730;43.858;18.424;2024-03-07T10:42:15;95198.25;;;14.39;43.16
84511;BME280;74730;43.858;18.424;2024-03-07T10:44:46;95192.69;;;14.17;43.56
84511;BME280;74730;43.858;18.424;2024-03-07T10:47:19;95201.44;;;14.04;43.88
84511;BME280;74730;43.858;18.424;2024-03-07T10:52:39;95200.94;;;13.41;45.71
84511;BME280;74730;43.858;18.424;2024-03-07T10:57:51;95203.25;;;13.00;46.99
84511;BME280;74730;43.858;18.424;2024-03-07T11:00:21;95208.69;;;13.23;46.17
84511;BME280;74730;43.858;18.424;2024-03-07T11:03:01;95207.19;;;13.34;46.26
84511;BME280;74730;43.858;18.424;2024-03-07T11:05:28;95199.53;;;13.39;45.79
84511;BME280;74730;43.858;18.424;2024-03-07T11:08:02;95196.72;;;13.65;45.24
84511;BME280;74730;43.858;18.424;2024-03-07T11:10:38;95188.34;;;13.81;44.73
84511;BME280;74730;43.858;18.424;2024-03-07T11:13:08;95186.59;;;13.75;44.53
84511;BME280;74730;43.858;18.424;2024-03-07T11:15:40;95192.22;;;14.08;44.10
84511;BME280;74730;43.858;18.424;2024-03-07T11:18:07;95192.22;;;14.08;43.25
84511;BME280;74730;43.858;18.424;2024-03-07T11:20:39;95195.25;;;14.05;43.89
84511;BME280;74730;43.858;18.424;2024-03-07T11:23:24;95189.41;;;14.10;43.37
84511;BME280;74730;43.858;18.424;2024-03-07T11:25:53;95190.41;;;14.09;43.56
84511;BME280;74730;43.858;18.424;2024-03-07T11:28:19;95190.69;;;14.19;43.00
84511;BME280;74730;43.858;18.424;2024-03-07T11:30:46;95194.13;;;14.31;42.20
84511;BME280;74730;43.858;18.424;2024-03-07T11:33:11;95187.13;;;14.32;43.00
84511;BME280;74730;43.858;18.424;2024-03-07T11:35:39;95189.44;;;14.21;42.69
84511;BME280;74730;43.858;18.424;2024-03-07T11:38:07;95190.47;;;14.20;42.77
84511;BME280;74730;43.858;18.424;2024-03-07T11:43:05;95191.78;;;13.93;44.17
84511;BME280;74730;43.858;18.424;2024-03-07T11:45:37;95201.16;;;13.58;44.15
84511;BME280;74730;43.858;18.424;2024-03-07T11:48:23;95189.88;;;13.27;45.07
84511;BME280;74730;43.858;18.424;2024-03-07T11:50:49;95192.63;;;13.32;44.92
84511;BME280;74730;43.858;18.424;2024-03-07T11:53:16;95203.75;;;13.15;45.34
84511;BME280;74730;43.858;18.424;2024-03-07T11:55:43;95199.50;;;12.96;45.65
84511;BME280;74730;43.858;18.424;2024-03-07T11:58:18;95199.63;;;12.76;46.94
84511;BME280;74730;43.858;18.424;2024-03-07T12:00:47;95211.38;;;12.78;47.06
84511;BME280;74730;43.858;18.424;2024-03-07T12:03:14;95217.34;;;12.79;47.15
84511;BME280;74730;43.858;18.424;2024-03-07T12:05:43;95207.31;;;12.89;46.99
84511;BME280;74730;43.858;18.424;2024-03-07T12:08:10;95213.25;;;12.96;46.73
84511;BME280;74730;43.858;18.424;2024-03-07T12:10:40;95209.34;;;12.87;47.61
84511;BME280;74730;43.858;18.424;2024-03-07T12:13:12;95214.81;;;12.72;48.30
84511;BME280;74730;43.858;18.424;2024-03-07T12:15:41;95210.78;;;12.76;47.58
84511;BME280;74730;43.858;18.424;2024-03-07T12:18:08;95209.25;;;12.69;47.76
84511;BME280;74730;43.858;18.424;2024-03-07T12:20:39;95209.63;;;12.72;48.97
84511;BME280;74730;43.858;18.424;2024-03-07T12:23:08;95205.81;;;12.75;48.39
84511;BME280;74730;43.858;18.424;2024-03-07T12:25:40;95202.94;;;12.58;48.94
84511;BME280;74730;43.858;18.424;2024-03-07T12:28:06;95198.97;;;12.87;47.52
84511;BME280;74730;43.858;18.424;2024-03-07T12:30:48;95202.72;;;12.91;48.66
84511;BME280;74730;43.858;18.424;2024-03-07T12:33:18;95208.44;;;13.00;47.63
84511;BME280;74730;43.858;18.424;2024-03-07T12:35:49;95207.13;;;12.84;48.19
84511;BME280;74730;43.858;18.424;2024-03-07T12:38:20;95211.97;;;12.49;48.06
84511;BME280;74730;43.858;18.424;2024-03-07T12:41:05;95209.66;;;11.83;49.57
84511;BME280;74730;43.858;18.424;2024-03-07T12:43:40;95205.88;;;11.86;49.75
84511;BME280;74730;43.858;18.424;2024-03-07T12:46:10;95211.44;;;11.96;50.25
84511;BME280;74730;43.858;18.424;2024-03-07T12:48:37;95215.63;;;11.71;50.42
84511;BME280;74730;43.858;18.424;2024-03-07T12:51:04;95217.84;;;11.61;50.41
84511;BME280;74730;43.858;18.424;2024-03-07T12:53:29;95219.47;;;11.48;50.32
84511;BME280;74730;43.858;18.424;2024-03-07T12:55:57;95216.13;;;11.35;51.29
84511;BME280;74730;43.858;18.424;2024-03-07T12:58:23;95220.09;;;11.31;51.67
84511;BME280;74730;43.858;18.424;2024-03-07T13:00:52;95221.91;;;11.17;51.25
84511;BME280;74730;43.858;18.424;2024-03-07T13:03:18;95221.69;;;10.99;52.23
84511;BME280;74730;43.858;18.424;2024-03-07T13:05:44;95222.28;;;10.75;52.75
84511;BME280;74730;43.858;18.424;2024-03-07T13:08:10;95225.63;;;10.62;52.90